sensor_id;sensor_type;location;lat;lon;timestamp;P1;durP1;ratioP1;P2;durP2;ratioP2
20597;SDS011;10457;48.770;11.446;2023-04-06T00:04:00;10.43;;;8.70;;
20597;SDS011;10457;48.770;11.446;2023-04-06T00:09:22;16.70;;;10.43;;
20597;SDS011;10457;48.770;11.446;2023-04-06T00:14:45;20.17;;;11.97;;
20597;SDS011;10457;48.770;11.446;2023-04-06T00:20:07;19.13;;;13.07;;
20597;SDS011;10457;48.770;11.446;2023-04-06T00:25:30;20.43;;;13.43;;
20597;SDS011;10457;48.770;11.446;2023-04-06T00:30:53;17.67;;;12.90;;
20597;SDS011;10457;48.770;11.446;2023-04-06T00:36:15;18.07;;;12.67;;
20597;SDS011;10457;48.770;11.446;2023-04-06T00:41:37;18.63;;;11.37;;
20597;SDS011;10457;48.770;11.446;2023-04-06T00:47:04;19.33;;;12.50;;
20597;SDS011;10457;48.770;11.446;2023-04-06T00:52:26;17.00;;;11.97;;
20597;SDS011;10457;48.770;11.446;2023-04-06T00:57:49;20.07;;;12.50;;
20597;SDS011;10457;48.770;11.446;2023-04-06T01:03:12;16.50;;;12.10;;
20597;SDS011;10457;48.770;11.446;2023-04-06T01:08:36;16.03;;;11.33;;
20597;SDS011;10457;48.770;11.446;2023-04-06T01:14:10;13.47;;;10.20;;
20597;SDS011;10457;48.770;11.446;2023-04-06T01:19:44;12.50;;;9.70;;
20597;SDS011;10457;48.770;11.446;2023-04-06T01:25:16;11.83;;;8.37;;
20597;SDS011;10457;48.770;11.446;2023-04-06T01:30:53;10.63;;;8.50;;
20597;SDS011;10457;48.770;11.446;2023-04-06T01:36:33;12.57;;;7.67;;
20597;SDS011;10457;48.770;11.446;2023-04-06T01:42:11;14.27;;;8.83;;
20597;SDS011;10457;48.770;11.446;2023-04-06T01:47:34;12.20;;;7.83;;
20597;SDS011;10457;48.770;11.446;2023-04-06T01:52:56;10.90;;;7.63;;
20597;SDS011;10457;48.770;11.446;2023-04-06T01:58:22;12.90;;;7.83;;
20597;SDS011;10457;48.770;11.446;2023-04-06T02:03:44;13.93;;;9.07;;
20597;SDS011;10457;48.770;11.446;2023-04-06T02:09:06;15.23;;;8.77;;
20597;SDS011;10457;48.770;11.446;2023-04-06T02:14:29;23.27;;;12.63;;
20597;SDS011;10457;48.770;11.446;2023-04-06T02:19:53;19.97;;;11.37;;
20597;SDS011;10457;48.770;11.446;2023-04-06T02:25:15;18.50;;;9.63;;
20597;SDS011;10457;48.770;11.446;2023-04-06T02:30:38;12.97;;;8.40;;
20597;SDS011;10457;48.770;11.446;2023-04-06T02:35:59;12.70;;;9.23;;
20597;SDS011;10457;48.770;11.446;2023-04-06T02:41:22;13.33;;;8.70;;
20597;SDS011;10457;48.770;11.446;2023-04-06T02:46:46;9.83;;;7.70;;
20597;SDS011;10457;48.770;11.446;2023-04-06T02:52:08;12.73;;;7.40;;
20597;SDS011;10457;48.770;11.446;2023-04-06T02:57:30;10.97;;;8.00;;
20597;SDS011;10457;48.770;11.446;2023-04-06T03:02:53;14.27;;;8.53;;
20597;SDS011;10457;48.770;11.446;2023-04-06T03:08:16;11.40;;;9.00;;
20597;SDS011;10457;48.770;11.446;2023-04-06T03:13:38;13.37;;;8.57;;
20597;SDS011;10457;48.770;11.446;2023-04-06T03:19:02;10.00;;;8.50;;
20597;SDS011;10457;48.770;11.446;2023-04-06T03:24:27;13.93;;;9.00;;
20597;SDS011;10457;48.770;11.446;2023-04-06T03:29:49;10.77;;;9.13;;
20597;SDS011;10457;48.770;11.446;2023-04-06T03:35:20;12.87;;;7.93;;
20597;SDS011;10457;48.770;11.446;2023-04-06T03:40:42;13.10;;;8.73;;
20597;SDS011;10457;48.770;11.446;2023-04-06T03:46:03;12.30;;;8.07;;
20597;SDS011;10457;48.770;11.446;2023-04-06T03:51:28;12.20;;;7.57;;
20597;SDS011;10457;48.770;11.446;2023-04-06T03:56:50;11.67;;;7.83;;
20597;SDS011;10457;48.770;11.446;2023-04-06T04:02:12;10.80;;;7.70;;
20597;SDS011;10457;48.770;11.446;2023-04-06T04:07:35;11.30;;;7.57;;
20597;SDS011;10457;48.770;11.446;2023-04-06T04:12:57;14.93;;;8.53;;
20597;SDS011;10457;48.770;11.446;2023-04-06T04:18:19;8.97;;;7.20;;
20597;SDS011;10457;48.770;11.446;2023-04-06T04:23:42;9.97;;;7.47;;
20597;SDS011;10457;48.770;11.446;2023-04-06T04:29:03;13.57;;;7.63;;
20597;SDS011;10457;48.770;11.446;2023-04-06T04:34:25;13.23;;;6.83;;
20597;SDS011;10457;48.770;11.446;2023-04-06T04:39:49;10.57;;;7.63;;
20597;SDS011;10457;48.770;11.446;2023-04-06T04:45:11;12.43;;;7.33;;
20597;SDS011;10457;48.770;11.446;2023-04-06T04:50:34;10.43;;;7.80;;
20597;SDS011;10457;48.770;11.446;2023-04-06T04:55:58;14.53;;;9.07;;
20597;SDS011;10457;48.770;11.446;2023-04-06T05:01:21;15.80;;;7.90;;
20597;SDS011;10457;48.770;11.446;2023-04-06T05:06:43;14.47;;;8.83;;
20597;SDS011;10457;48.770;11.446;2023-04-06T05:12:07;11.63;;;8.43;;
20597;SDS011;10457;48.770;11.446;2023-04-06T05:17:39;14.10;;;6.97;;
20597;SDS011;10457;48.770;11.446;2023-04-06T05:23:03;9.90;;;6.60;;
20597;SDS011;10457;48.770;11.446;2023-04-06T05:28:27;13.00;;;6.80;;
20597;SDS011;10457;48.770;11.446;2023-04-06T05:33:48;13.27;;;6.70;;
20597;SDS011;10457;48.770;11.446;2023-04-06T05:39:20;10.03;;;6.40;;
20597;SDS011;10457;48.770;11.446;2023-04-06T05:44:48;7.90;;;5.77;;
20597;SDS011;10457;48.770;11.446;2023-04-06T05:50:11;9.67;;;5.70;;
20597;SDS011;10457;48.770;11.446;2023-04-06T05:55:33;13.77;;;6.23;;
20597;SDS011;10457;48.770;11.446;2023-04-06T06:01:08;9.53;;;6.07;;
20597;SDS011;10457;48.770;11.446;2023-04-06T06:06:34;13.50;;;7.03;;
20597;SDS011;10457;48.770;11.446;2023-04-06T06:12:05;8.43;;;5.83;;
20597;SDS011;10457;48.770;11.446;2023-04-06T06:17:29;10.33;;;6.40;;
20597;SDS011;10457;48.770;11.446;2023-04-06T06:22:50;10.20;;;5.40;;
20597;SDS011;10457;48.770;11.446;2023-04-06T06:28:15;6.77;;;5.57;;
20597;SDS011;10457;48.770;11.446;2023-04-06T06:33:38;7.53;;;5.77;;
20597;SDS011;10457;48.770;11.446;2023-04-06T06:38:59;14.73;;;5.80;;
20597;SDS011;10457;48.770;11.446;2023-04-06T06:44:24;7.93;;;6.00;;
20597;SDS011;10457;48.770;11.446;2023-04-06T06:49:47;6.67;;;5.93;;
20597;SDS011;10457;48.770;11.446;2023-04-06T06:55:09;10.93;;;6.40;;
20597;SDS011;10457;48.770;11.446;2023-04-06T07:00:31;8.33;;;5.97;;
20597;SDS011;10457;48.770;11.446;2023-04-06T07:05:55;9.63;;;6.87;;
20597;SDS011;10457;48.770;11.446;2023-04-06T07:11:18;9.97;;;6.67;;
20597;SDS011;10457;48.770;11.446;2023-04-06T07:16:40;11.80;;;7.03;;
20597;SDS011;10457;48.770;11.446;2023-04-06T07:22:04;12.10;;;7.47;;
20597;SDS011;10457;48.770;11.446;2023-04-06T07:27:26;8.47;;;6.93;;
20597;SDS011;10457;48.770;11.446;2023-04-06T07:32:48;11.00;;;7.67;;
20597;SDS011;10457;48.770;11.446;2023-04-06T07:38:11;14.07;;;7.50;;
20597;SDS011;10457;48.770;11.446;2023-04-06T07:43:34;9.30;;;7.07;;
20597;SDS011;10457;48.770;11.446;2023-04-06T07:48:57;11.18;;;7.28;;
20597;SDS011;10457;48.770;11.446;2023-04-06T07:54:24;10.05;;;7.05;;
20597;SDS011;10457;48.770;11.446;2023-04-06T07:59:46;13.90;;;8.43;;
20597;SDS011;10457;48.770;11.446;2023-04-06T08:05:07;9.60;;;7.15;;
20597;SDS011;10457;48.770;11.446;2023-04-06T08:10:31;13.43;;;8.43;;
20597;SDS011;10457;48.770;11.446;2023-04-06T08:15:54;9.63;;;8.07;;
20597;SDS011;10457;48.770;11.446;2023-04-06T08:21:16;10.45;;;8.27;;
20597;SDS011;10457;48.770;11.446;2023-04-06T08:26:39;12.25;;;8.20;;
20597;SDS011;10457;48.770;11.446;2023-04-06T08:32:01;18.50;;;9.45;;
20597;SDS011;10457;48.770;11.446;2023-04-06T08:37:25;15.00;;;9.47;;
20597;SDS011;10457;48.770;11.446;2023-04-06T08:42:49;12.93;;;9.07;;
20597;SDS011;10457;48.770;11.446;2023-04-06T08:48:14;15.47;;;9.43;;
20597;SDS011;10457;48.770;11.446;2023-04-06T08:53:37;15.27;;;9.10;;
20597;SDS011;10457;48.770;11.446;2023-04-06T08:59:00;18.73;;;9.50;;
20597;SDS011;10457;48.770;11.446;2023-04-06T09:04:24;12.90;;;8.83;;
20597;SDS011;10457;48.770;11.446;2023-04-06T09:09:47;8.83;;;7.57;;
20597;SDS011;10457;48.770;11.446;2023-04-06T09:15:18;12.50;;;8.10;;
20597;SDS011;10457;48.770;11.446;2023-04-06T09:20:41;11.27;;;6.87;;
20597;SDS011;10457;48.770;11.446;2023-04-06T09:26:04;10.33;;;7.63;;
20597;SDS011;10457;48.770;11.446;2023-04-06T09:31:32;9.43;;;7.27;;
20597;SDS011;10457;48.770;11.446;2023-04-06T09:36:54;7.17;;;6.43;;
20597;SDS011;10457;48.770;11.446;2023-04-06T09:42:23;11.27;;;8.37;;
20597;SDS011;10457;48.770;11.446;2023-04-06T09:47:47;8.07;;;7.10;;
20597;SDS011;10457;48.770;11.446;2023-04-06T09:53:10;8.17;;;6.87;;
20597;SDS011;10457;48.770;11.446;2023-04-06T09:58:33;11.35;;;7.95;;
20597;SDS011;10457;48.770;11.446;2023-04-06T10:04:03;11.82;;;8.55;;
20597;SDS011;10457;48.770;11.446;2023-04-06T10:09:37;11.65;;;8.27;;
20597;SDS011;10457;48.770;11.446;2023-04-06T10:14:59;9.07;;;8.15;;
20597;SDS011;10457;48.770;11.446;2023-04-06T10:20:23;10.38;;;8.63;;
20597;SDS011;10457;48.770;11.446;2023-04-06T10:25:52;11.50;;;9.30;;
20597;SDS011;10457;48.770;11.446;2023-04-06T10:31:14;10.90;;;9.32;;
20597;SDS011;10457;48.770;11.446;2023-04-06T10:36:46;10.77;;;8.60;;
20597;SDS011;10457;48.770;11.446;2023-04-06T10:42:07;8.77;;;7.88;;
20597;SDS011;10457;48.770;11.446;2023-04-06T10:47:29;10.20;;;9.02;;
20597;SDS011;10457;48.770;11.446;2023-04-06T10:53:03;10.05;;;8.88;;
20597;SDS011;10457;48.770;11.446;2023-04-06T10:58:25;10.43;;;8.32;;
20597;SDS011;10457;48.770;11.446;2023-04-06T11:03:49;11.75;;;8.93;;
20597;SDS011;10457;48.770;11.446;2023-04-06T11:09:22;9.65;;;7.90;;
20597;SDS011;10457;48.770;11.446;2023-04-06T11:14:52;9.80;;;7.65;;
20597;SDS011;10457;48.770;11.446;2023-04-06T11:20:15;9.82;;;8.57;;
20597;SDS011;10457;48.770;11.446;2023-04-06T11:25:38;9.15;;;8.15;;
20597;SDS011;10457;48.770;11.446;2023-04-06T11:31:11;12.73;;;8.95;;
20597;SDS011;10457;48.770;11.446;2023-04-06T11:36:34;9.75;;;7.88;;
20597;SDS011;10457;48.770;11.446;2023-04-06T11:41:58;12.07;;;7.93;;
20597;SDS011;10457;48.770;11.446;2023-04-06T11:47:27;12.95;;;9.35;;
20597;SDS011;10457;48.770;11.446;2023-04-06T11:52:57;10.30;;;9.27;;
20597;SDS011;10457;48.770;11.446;2023-04-06T11:58:21;9.93;;;8.27;;
20597;SDS011;10457;48.770;11.446;2023-04-06T12:03:43;8.48;;;7.60;;
20597;SDS011;10457;48.770;11.446;2023-04-06T12:09:05;9.85;;;8.13;;
20597;SDS011;10457;48.770;11.446;2023-04-06T12:14:28;10.32;;;8.82;;
20597;SDS011;10457;48.770;11.446;2023-04-06T12:19:50;10.93;;;9.77;;
20597;SDS011;10457;48.770;11.446;2023-04-06T12:25:12;9.68;;;8.68;;
20597;SDS011;10457;48.770;11.446;2023-04-06T12:30:35;11.38;;;9.85;;
20597;SDS011;10457;48.770;11.446;2023-04-06T12:35:57;12.43;;;8.02;;
20597;SDS011;10457;48.770;11.446;2023-04-06T12:41:19;11.00;;;9.70;;
20597;SDS011;10457;48.770;11.446;2023-04-06T12:46:42;14.73;;;9.43;;
20597;SDS011;10457;48.770;11.446;2023-04-06T12:52:04;11.05;;;9.40;;
20597;SDS011;10457;48.770;11.446;2023-04-06T12:57:26;12.98;;;8.77;;
20597;SDS011;10457;48.770;11.446;2023-04-06T13:02:49;9.27;;;8.32;;
20597;SDS011;10457;48.770;11.446;2023-04-06T13:08:10;10.57;;;7.88;;
20597;SDS011;10457;48.770;11.446;2023-04-06T13:13:32;9.23;;;8.27;;
20597;SDS011;10457;48.770;11.446;2023-04-06T13:18:55;9.13;;;8.10;;
20597;SDS011;10457;48.770;11.446;2023-04-06T13:24:17;11.43;;;9.07;;
20597;SDS011;10457;48.770;11.446;2023-04-06T13:29:41;12.77;;;9.70;;
20597;SDS011;10457;48.770;11.446;2023-04-06T13:35:05;11.45;;;10.25;;
20597;SDS011;10457;48.770;11.446;2023-04-06T13:40:27;12.70;;;9.50;;
20597;SDS011;10457;48.770;11.446;2023-04-06T13:45:49;13.77;;;10.60;;
20597;SDS011;10457;48.770;11.446;2023-04-06T13:51:13;10.02;;;8.93;;
20597;SDS011;10457;48.770;11.446;2023-04-06T13:56:35;11.13;;;9.90;;
20597;SDS011;10457;48.770;11.446;2023-04-06T14:01:57;11.73;;;9.05;;
20597;SDS011;10457;48.770;11.446;2023-04-06T14:07:20;16.60;;;11.10;;
20597;SDS011;10457;48.770;11.446;2023-04-06T14:12:41;14.48;;;9.98;;
20597;SDS011;10457;48.770;11.446;2023-04-06T14:18:04;12.18;;;10.27;;
20597;SDS011;10457;48.770;11.446;2023-04-06T14:23:28;13.05;;;10.57;;
20597;SDS011;10457;48.770;11.446;2023-04-06T14:28:49;14.48;;;10.02;;
20597;SDS011;10457;48.770;11.446;2023-04-06T14:34:11;12.75;;;9.90;;
20597;SDS011;10457;48.770;11.446;2023-04-06T14:39:34;11.93;;;10.05;;
20597;SDS011;10457;48.770;11.446;2023-04-06T14:44:56;13.98;;;9.68;;
20597;SDS011;10457;48.770;11.446;2023-04-06T14:50:17;15.35;;;10.75;;
20597;SDS011;10457;48.770;11.446;2023-04-06T14:55:40;18.70;;;15.77;;
20597;SDS011;10457;48.770;11.446;2023-04-06T15:01:02;12.30;;;9.93;;
20597;SDS011;10457;48.770;11.446;2023-04-06T15:06:25;12.03;;;8.97;;
20597;SDS011;10457;48.770;11.446;2023-04-06T15:11:48;10.20;;;8.20;;
20597;SDS011;10457;48.770;11.446;2023-04-06T15:17:09;17.60;;;9.33;;
20597;SDS011;10457;48.770;11.446;2023-04-06T15:22:30;12.33;;;7.67;;
20597;SDS011;10457;48.770;11.446;2023-04-06T15:27:54;10.40;;;8.18;;
20597;SDS011;10457;48.770;11.446;2023-04-06T15:33:16;10.00;;;7.45;;
20597;SDS011;10457;48.770;11.446;2023-04-06T15:38:40;11.40;;;8.17;;
20597;SDS011;10457;48.770;11.446;2023-04-06T15:44:06;12.67;;;9.07;;
20597;SDS011;10457;48.770;11.446;2023-04-06T15:49:27;11.70;;;8.40;;
20597;SDS011;10457;48.770;11.446;2023-04-06T15:54:49;13.47;;;8.77;;
20597;SDS011;10457;48.770;11.446;2023-04-06T16:00:13;10.53;;;8.03;;
20597;SDS011;10457;48.770;11.446;2023-04-06T16:05:35;11.37;;;8.53;;
20597;SDS011;10457;48.770;11.446;2023-04-06T16:10:56;12.43;;;8.27;;
20597;SDS011;10457;48.770;11.446;2023-04-06T16:16:19;11.67;;;8.13;;
20597;SDS011;10457;48.770;11.446;2023-04-06T16:21:41;9.37;;;7.43;;
20597;SDS011;10457;48.770;11.446;2023-04-06T16:27:02;11.70;;;8.13;;
20597;SDS011;10457;48.770;11.446;2023-04-06T16:32:25;9.87;;;6.43;;
20597;SDS011;10457;48.770;11.446;2023-04-06T16:37:46;9.50;;;7.17;;
20597;SDS011;10457;48.770;11.446;2023-04-06T16:43:08;10.43;;;7.60;;
20597;SDS011;10457;48.770;11.446;2023-04-06T16:48:31;8.30;;;6.90;;
20597;SDS011;10457;48.770;11.446;2023-04-06T16:53:52;10.03;;;7.03;;
20597;SDS011;10457;48.770;11.446;2023-04-06T16:59:14;10.87;;;8.13;;
20597;SDS011;10457;48.770;11.446;2023-04-06T17:04:37;11.60;;;8.03;;
20597;SDS011;10457;48.770;11.446;2023-04-06T17:09:58;9.07;;;7.50;;
20597;SDS011;10457;48.770;11.446;2023-04-06T17:15:20;17.60;;;10.73;;
20597;SDS011;10457;48.770;11.446;2023-04-06T17:20:44;11.63;;;8.10;;
20597;SDS011;10457;48.770;11.446;2023-04-06T17:26:07;12.73;;;8.67;;
20597;SDS011;10457;48.770;11.446;2023-04-06T17:31:28;8.63;;;7.33;;
20597;SDS011;10457;48.770;11.446;2023-04-06T17:36:51;10.67;;;8.30;;
20597;SDS011;10457;48.770;11.446;2023-04-06T17:42:13;13.47;;;8.30;;
20597;SDS011;10457;48.770;11.446;2023-04-06T17:47:34;14.57;;;8.67;;
20597;SDS011;10457;48.770;11.446;2023-04-06T17:52:57;11.87;;;9.43;;
20597;SDS011;10457;48.770;11.446;2023-04-06T17:58:19;18.30;;;10.83;;
20597;SDS011;10457;48.770;11.446;2023-04-06T18:03:41;19.93;;;10.57;;
20597;SDS011;10457;48.770;11.446;2023-04-06T18:09:04;15.87;;;10.17;;
20597;SDS011;10457;48.770;11.446;2023-04-06T18:14:25;16.60;;;10.73;;
20597;SDS011;10457;48.770;11.446;2023-04-06T18:19:47;30.67;;;18.40;;
20597;SDS011;10457;48.770;11.446;2023-04-06T18:25:10;34.60;;;19.20;;
20597;SDS011;10457;48.770;11.446;2023-04-06T18:30:31;26.93;;;17.60;;
20597;SDS011;10457;48.770;11.446;2023-04-06T18:35:53;25.40;;;16.27;;
20597;SDS011;10457;48.770;11.446;2023-04-06T18:41:16;19.80;;;13.30;;
20597;SDS011;10457;48.770;11.446;2023-04-06T18:46:39;18.30;;;12.27;;
20597;SDS011;10457;48.770;11.446;2023-04-06T18:52:03;18.57;;;12.03;;
20597;SDS011;10457;48.770;11.446;2023-04-06T18:57:26;24.50;;;12.97;;
20597;SDS011;10457;48.770;11.446;2023-04-06T19:02:47;21.27;;;12.33;;
20597;SDS011;10457;48.770;11.446;2023-04-06T19:08:09;23.00;;;14.07;;
20597;SDS011;10457;48.770;11.446;2023-04-06T19:13:33;23.83;;;12.93;;
20597;SDS011;10457;48.770;11.446;2023-04-06T19:18:56;26.27;;;15.43;;
20597;SDS011;10457;48.770;11.446;2023-04-06T19:24:18;27.63;;;15.00;;
20597;SDS011;10457;48.770;11.446;2023-04-06T19:29:41;24.97;;;15.57;;
20597;SDS011;10457;48.770;11.446;2023-04-06T19:35:02;23.83;;;15.83;;
20597;SDS011;10457;48.770;11.446;2023-04-06T19:40:25;20.70;;;15.00;;
20597;SDS011;10457;48.770;11.446;2023-04-06T19:45:47;24.57;;;16.07;;
20597;SDS011;10457;48.770;11.446;2023-04-06T19:51:09;23.63;;;15.30;;
20597;SDS011;10457;48.770;11.446;2023-04-06T19:56:31;28.43;;;16.80;;
20597;SDS011;10457;48.770;11.446;2023-04-06T20:01:54;27.20;;;16.83;;
20597;SDS011;10457;48.770;11.446;2023-04-06T20:07:15;21.40;;;16.73;;
20597;SDS011;10457;48.770;11.446;2023-04-06T20:12:38;25.77;;;15.93;;
20597;SDS011;10457;48.770;11.446;2023-04-06T20:18:02;21.07;;;15.37;;
20597;SDS011;10457;48.770;11.446;2023-04-06T20:23:23;26.97;;;15.20;;
20597;SDS011;10457;48.770;11.446;2023-04-06T20:28:45;18.77;;;13.43;;
20597;SDS011;10457;48.770;11.446;2023-04-06T20:34:08;15.40;;;12.53;;
20597;SDS011;10457;48.770;11.446;2023-04-06T20:39:29;17.60;;;12.70;;
20597;SDS011;10457;48.770;11.446;2023-04-06T20:44:51;23.20;;;12.07;;
20597;SDS011;10457;48.770;11.446;2023-04-06T20:50:14;14.63;;;9.87;;
20597;SDS011;10457;48.770;11.446;2023-04-06T20:55:38;19.23;;;11.60;;
20597;SDS011;10457;48.770;11.446;2023-04-06T21:01:00;17.33;;;11.90;;
20597;SDS011;10457;48.770;11.446;2023-04-06T21:06:25;18.00;;;12.37;;
20597;SDS011;10457;48.770;11.446;2023-04-06T21:11:47;23.63;;;12.83;;
20597;SDS011;10457;48.770;11.446;2023-04-06T21:17:08;20.40;;;12.63;;
20597;SDS011;10457;48.770;11.446;2023-04-06T21:22:31;18.80;;;12.03;;
20597;SDS011;10457;48.770;11.446;2023-04-06T21:27:55;22.60;;;14.13;;
20597;SDS011;10457;48.770;11.446;2023-04-06T21:33:17;19.00;;;13.93;;
20597;SDS011;10457;48.770;11.446;2023-04-06T21:38:40;20.17;;;14.30;;
20597;SDS011;10457;48.770;11.446;2023-04-06T21:44:01;16.07;;;12.77;;
20597;SDS011;10457;48.770;11.446;2023-04-06T21:49:23;20.73;;;13.97;;
20597;SDS011;10457;48.770;11.446;2023-04-06T21:54:46;21.57;;;13.93;;
20597;SDS011;10457;48.770;11.446;2023-04-06T22:00:08;20.70;;;13.87;;
20597;SDS011;10457;48.770;11.446;2023-04-06T22:05:36;21.93;;;13.80;;
20597;SDS011;10457;48.770;11.446;2023-04-06T22:11:04;22.47;;;15.63;;
20597;SDS011;10457;48.770;11.446;2023-04-06T22:16:27;21.57;;;15.47;;
20597;SDS011;10457;48.770;11.446;2023-04-06T22:21:49;24.93;;;16.53;;
20597;SDS011;10457;48.770;11.446;2023-04-06T22:27:12;30.70;;;16.90;;
20597;SDS011;10457;48.770;11.446;2023-04-06T22:32:33;19.67;;;14.87;;
20597;SDS011;10457;48.770;11.446;2023-04-06T22:37:54;28.40;;;17.33;;
20597;SDS011;10457;48.770;11.446;2023-04-06T22:43:20;27.40;;;17.13;;
20597;SDS011;10457;48.770;11.446;2023-04-06T22:48:41;32.93;;;19.37;;
20597;SDS011;10457;48.770;11.446;2023-04-06T22:54:03;26.83;;;17.97;;
20597;SDS011;10457;48.770;11.446;2023-04-06T22:59:26;30.73;;;18.50;;
20597;SDS011;10457;48.770;11.446;2023-04-06T23:04:49;31.43;;;19.20;;
20597;SDS011;10457;48.770;11.446;2023-04-06T23:10:11;23.97;;;17.37;;
20597;SDS011;10457;48.770;11.446;2023-04-06T23:15:34;23.23;;;16.17;;
20597;SDS011;10457;48.770;11.446;2023-04-06T23:20:55;23.00;;;15.73;;
20597;SDS011;10457;48.770;11.446;2023-04-06T23:26:17;23.83;;;15.77;;
20597;SDS011;10457;48.770;11.446;2023-04-06T23:31:41;23.50;;;15.03;;
20597;SDS011;10457;48.770;11.446;2023-04-06T23:37:03;26.80;;;16.00;;
20597;SDS011;10457;48.770;11.446;2023-04-06T23:42:24;24.80;;;15.03;;
20597;SDS011;10457;48.770;11.446;2023-04-06T23:47:47;26.23;;;16.43;;
20597;SDS011;10457;48.770;11.446;2023-04-06T23:53:09;26.70;;;15.60;;
20597;SDS011;10457;48.770;11.446;2023-04-06T23:58:30;20.33;;;14.43;;
